sensor_id;sensor_type;location;lat;lon;timestamp;temperature;humidity
6758;DHT22;3416;53.074;8.822;2024-02-26T00:00:04;5.80;99.90
6758;DHT22;3416;53.074;8.822;2024-02-26T00:02:36;5.80;99.90
6758;DHT22;3416;53.074;8.822;2024-02-26T00:05:05;5.80;99.90
6758;DHT22;3416;53.074;8.822;2024-02-26T00:07:32;5.70;99.90
6758;DHT22;3416;53.074;8.822;2024-02-26T00:09:59;5.60;99.90
6758;DHT22;3416;53.074;8.822;2024-02-26T00:12:26;5.60;99.90
6758;DHT22;3416;53.074;8.822;2024-02-26T00:14:54;5.60;99.90
6758;DHT22;3416;53.074;8.822;2024-02-26T00:17:23;5.50;99.90
6758;DHT22;3416;53.074;8.822;2024-02-26T00:19:52;5.50;99.90
6758;DHT22;3416;53.074;8.822;2024-02-26T00:22:19;5.50;99.90
6758;DHT22;3416;53.074;8.822;2024-02-26T00:24:47;5.50;99.90
6758;DHT22;3416;53.074;8.822;2024-02-26T00:27:14;5.50;99.90
6758;DHT22;3416;53.074;8.822;2024-02-26T00:29:41;5.50;99.90
6758;DHT22;3416;53.074;8.822;2024-02-26T00:32:08;5.50;99.90
6758;DHT22;3416;53.074;8.822;2024-02-26T00:34:35;5.50;99.90
6758;DHT22;3416;53.074;8.822;2024-02-26T00:37:04;5.50;99.90
6758;DHT22;3416;53.074;8.822;2024-02-26T00:39:31;5.50;99.90
6758;DHT22;3416;53.074;8.822;2024-02-26T00:41:58;5.50;99.90
6758;DHT22;3416;53.074;8.822;2024-02-26T00:44:25;5.50;99.90
6758;DHT22;3416;53.074;8.822;2024-02-26T00:46:52;5.50;99.90
6758;DHT22;3416;53.074;8.822;2024-02-26T00:49:19;5.40;99.90
6758;DHT22;3416;53.074;8.822;2024-02-26T00:51:46;5.40;99.90
6758;DHT22;3416;53.074;8.822;2024-02-26T00:54:15;5.30;99.90
6758;DHT22;3416;53.074;8.822;2024-02-26T00:56:42;5.30;99.90
6758;DHT22;3416;53.074;8.822;2024-02-26T00:59:09;5.30;99.90
6758;DHT22;3416;53.074;8.822;2024-02-26T01:01:36;5.40;99.90
6758;DHT22;3416;53.074;8.822;2024-02-26T01:04:03;5.40;99.90
6758;DHT22;3416;53.074;8.822;2024-02-26T01:06:30;5.40;99.90
6758;DHT22;3416;53.074;8.822;2024-02-26T01:08:57;5.40;99.90
6758;DHT22;3416;53.074;8.822;2024-02-26T01:11:25;5.40;99.90
6758;DHT22;3416;53.074;8.822;2024-02-26T01:13:52;5.30;99.90
6758;DHT22;3416;53.074;8.822;2024-02-26T01:16:22;5.30;99.90
6758;DHT22;3416;53.074;8.822;2024-02-26T01:18:49;5.20;99.90
6758;DHT22;3416;53.074;8.822;2024-02-26T01:21:16;5.20;99.90
6758;DHT22;3416;53.074;8.822;2024-02-26T01:23:43;5.20;99.90
6758;DHT22;3416;53.074;8.822;2024-02-26T01:26:11;5.10;99.90
6758;DHT22;3416;53.074;8.822;2024-02-26T01:28:39;5.00;99.90
6758;DHT22;3416;53.074;8.822;2024-02-26T01:31:05;5.00;99.90
6758;DHT22;3416;53.074;8.822;2024-02-26T01:33:34;5.00;99.90
6758;DHT22;3416;53.074;8.822;2024-02-26T01:36:01;5.00;99.90
6758;DHT22;3416;53.074;8.822;2024-02-26T01:38:30;5.00;99.90
6758;DHT22;3416;53.074;8.822;2024-02-26T01:40:57;5.00;99.90
6758;DHT22;3416;53.074;8.822;2024-02-26T01:43:24;5.00;99.90
6758;DHT22;3416;53.074;8.822;2024-02-26T01:45:52;5.00;99.90
6758;DHT22;3416;53.074;8.822;2024-02-26T01:48:20;5.00;99.90
6758;DHT22;3416;53.074;8.822;2024-02-26T01:50:47;5.00;99.90
6758;DHT22;3416;53.074;8.822;2024-02-26T01:53:14;5.00;99.90
6758;DHT22;3416;53.074;8.822;2024-02-26T01:55:42;5.00;99.90
6758;DHT22;3416;53.074;8.822;2024-02-26T01:58:09;5.00;99.90
6758;DHT22;3416;53.074;8.822;2024-02-26T02:00:37;5.00;99.90
6758;DHT22;3416;53.074;8.822;2024-02-26T02:03:06;5.00;99.90
6758;DHT22;3416;53.074;8.822;2024-02-26T02:05:33;5.00;99.90
6758;DHT22;3416;53.074;8.822;2024-02-26T02:08:04;5.10;99.90
6758;DHT22;3416;53.074;8.822;2024-02-26T02:10:31;5.00;99.90
6758;DHT22;3416;53.074;8.822;2024-02-26T02:12:58;5.00;99.90
6758;DHT22;3416;53.074;8.822;2024-02-26T02:15:25;4.90;99.90
6758;DHT22;3416;53.074;8.822;2024-02-26T02:17:52;4.90;99.90
6758;DHT22;3416;53.074;8.822;2024-02-26T02:20:31;4.90;99.90
6758;DHT22;3416;53.074;8.822;2024-02-26T02:22:59;5.00;99.90
6758;DHT22;3416;53.074;8.822;2024-02-26T02:25:26;4.90;99.90
6758;DHT22;3416;53.074;8.822;2024-02-26T02:27:53;4.80;99.90
6758;DHT22;3416;53.074;8.822;2024-02-26T02:30:21;4.80;99.90
6758;DHT22;3416;53.074;8.822;2024-02-26T02:32:50;4.70;99.90
6758;DHT22;3416;53.074;8.822;2024-02-26T02:35:17;4.70;99.90
6758;DHT22;3416;53.074;8.822;2024-02-26T02:37:46;4.70;99.90
6758;DHT22;3416;53.074;8.822;2024-02-26T02:40:13;4.80;99.90
6758;DHT22;3416;53.074;8.822;2024-02-26T02:42:40;4.70;99.90
6758;DHT22;3416;53.074;8.822;2024-02-26T02:45:07;4.80;99.90
6758;DHT22;3416;53.074;8.822;2024-02-26T02:47:36;4.80;99.90
6758;DHT22;3416;53.074;8.822;2024-02-26T02:50:04;4.80;99.90
6758;DHT22;3416;53.074;8.822;2024-02-26T02:52:31;4.80;99.90
6758;DHT22;3416;53.074;8.822;2024-02-26T02:54:59;4.80;99.90
6758;DHT22;3416;53.074;8.822;2024-02-26T02:57:26;4.80;99.90
6758;DHT22;3416;53.074;8.822;2024-02-26T02:59:53;4.80;99.90
6758;DHT22;3416;53.074;8.822;2024-02-26T03:02:20;4.80;99.90
6758;DHT22;3416;53.074;8.822;2024-02-26T03:04:47;4.80;99.90
6758;DHT22;3416;53.074;8.822;2024-02-26T03:07:14;4.80;99.90
6758;DHT22;3416;53.074;8.822;2024-02-26T03:09:41;4.70;99.90
6758;DHT22;3416;53.074;8.822;2024-02-26T03:12:10;4.70;99.90
6758;DHT22;3416;53.074;8.822;2024-02-26T03:14:37;4.60;99.90
6758;DHT22;3416;53.074;8.822;2024-02-26T03:17:05;4.60;99.90
6758;DHT22;3416;53.074;8.822;2024-02-26T03:19:32;4.60;99.90
6758;DHT22;3416;53.074;8.822;2024-02-26T03:21:59;4.60;99.90
6758;DHT22;3416;53.074;8.822;2024-02-26T03:24:26;4.70;99.90
6758;DHT22;3416;53.074;8.822;2024-02-26T03:26:53;4.60;99.90
6758;DHT22;3416;53.074;8.822;2024-02-26T03:29:21;4.60;99.90
6758;DHT22;3416;53.074;8.822;2024-02-26T03:31:48;4.60;99.90
6758;DHT22;3416;53.074;8.822;2024-02-26T03:34:15;4.60;99.90
6758;DHT22;3416;53.074;8.822;2024-02-26T03:36:44;4.50;99.90
6758;DHT22;3416;53.074;8.822;2024-02-26T03:39:11;4.50;99.90
6758;DHT22;3416;53.074;8.822;2024-02-26T03:41:38;4.50;99.90
6758;DHT22;3416;53.074;8.822;2024-02-26T03:44:07;4.50;99.90
6758;DHT22;3416;53.074;8.822;2024-02-26T03:46:36;4.50;99.90
6758;DHT22;3416;53.074;8.822;2024-02-26T03:49:03;4.50;99.90
6758;DHT22;3416;53.074;8.822;2024-02-26T03:51:30;4.50;99.90
6758;DHT22;3416;53.074;8.822;2024-02-26T03:53:58;4.50;99.90
6758;DHT22;3416;53.074;8.822;2024-02-26T03:56:25;4.50;99.90
6758;DHT22;3416;53.074;8.822;2024-02-26T03:58:52;4.50;99.90
6758;DHT22;3416;53.074;8.822;2024-02-26T04:01:20;4.50;99.90
6758;DHT22;3416;53.074;8.822;2024-02-26T04:03:48;4.50;99.90
6758;DHT22;3416;53.074;8.822;2024-02-26T04:06:15;4.60;99.90
6758;DHT22;3416;53.074;8.822;2024-02-26T04:08:43;4.60;99.90
6758;DHT22;3416;53.074;8.822;2024-02-26T04:11:10;4.60;99.90
6758;DHT22;3416;53.074;8.822;2024-02-26T04:13:37;4.50;99.90
6758;DHT22;3416;53.074;8.822;2024-02-26T04:16:05;4.50;99.90
6758;DHT22;3416;53.074;8.822;2024-02-26T04:18:32;4.50;99.90
6758;DHT22;3416;53.074;8.822;2024-02-26T04:21:01;4.50;99.90
6758;DHT22;3416;53.074;8.822;2024-02-26T04:23:28;4.50;99.90
6758;DHT22;3416;53.074;8.822;2024-02-26T04:25:55;4.50;99.90
6758;DHT22;3416;53.074;8.822;2024-02-26T04:28:22;4.50;99.90
6758;DHT22;3416;53.074;8.822;2024-02-26T04:30:51;4.50;99.90
6758;DHT22;3416;53.074;8.822;2024-02-26T04:33:18;4.50;99.90
6758;DHT22;3416;53.074;8.822;2024-02-26T04:35:45;4.50;99.90
6758;DHT22;3416;53.074;8.822;2024-02-26T04:38:13;4.60;99.90
6758;DHT22;3416;53.074;8.822;2024-02-26T04:40:40;4.50;99.90
6758;DHT22;3416;53.074;8.822;2024-02-26T04:43:07;4.40;99.90
6758;DHT22;3416;53.074;8.822;2024-02-26T04:45:34;4.60;99.90
6758;DHT22;3416;53.074;8.822;2024-02-26T04:48:02;4.40;99.90
6758;DHT22;3416;53.074;8.822;2024-02-26T04:50:29;4.40;99.90
6758;DHT22;3416;53.074;8.822;2024-02-26T04:52:57;4.40;99.90
6758;DHT22;3416;53.074;8.822;2024-02-26T04:55:25;4.50;99.90
6758;DHT22;3416;53.074;8.822;2024-02-26T04:57:52;4.50;99.90
6758;DHT22;3416;53.074;8.822;2024-02-26T05:00:19;4.50;99.90
6758;DHT22;3416;53.074;8.822;2024-02-26T05:02:46;4.50;99.90
6758;DHT22;3416;53.074;8.822;2024-02-26T05:05:13;4.50;99.90
6758;DHT22;3416;53.074;8.822;2024-02-26T05:07:40;4.50;99.90
6758;DHT22;3416;53.074;8.822;2024-02-26T05:10:11;4.50;99.90
6758;DHT22;3416;53.074;8.822;2024-02-26T05:12:39;4.60;99.90
6758;DHT22;3416;53.074;8.822;2024-02-26T05:15:09;4.60;99.90
6758;DHT22;3416;53.074;8.822;2024-02-26T05:17:36;4.60;99.90
6758;DHT22;3416;53.074;8.822;2024-02-26T05:20:06;4.50;99.90
6758;DHT22;3416;53.074;8.822;2024-02-26T05:22:34;4.60;99.90
6758;DHT22;3416;53.074;8.822;2024-02-26T05:25:02;4.60;99.90
6758;DHT22;3416;53.074;8.822;2024-02-26T05:27:29;4.60;99.90
6758;DHT22;3416;53.074;8.822;2024-02-26T05:29:57;4.60;99.90
6758;DHT22;3416;53.074;8.822;2024-02-26T05:32:24;4.70;99.90
6758;DHT22;3416;53.074;8.822;2024-02-26T05:34:51;4.70;99.90
6758;DHT22;3416;53.074;8.822;2024-02-26T05:37:19;4.70;99.90
6758;DHT22;3416;53.074;8.822;2024-02-26T05:39:46;4.70;99.90
6758;DHT22;3416;53.074;8.822;2024-02-26T05:42:12;4.70;99.90
6758;DHT22;3416;53.074;8.822;2024-02-26T05:44:40;4.70;99.90
6758;DHT22;3416;53.074;8.822;2024-02-26T05:47:08;4.70;99.90
6758;DHT22;3416;53.074;8.822;2024-02-26T05:49:36;4.70;99.90
6758;DHT22;3416;53.074;8.822;2024-02-26T05:52:04;4.70;99.90
6758;DHT22;3416;53.074;8.822;2024-02-26T05:54:31;4.70;99.90
6758;DHT22;3416;53.074;8.822;2024-02-26T05:56:58;4.70;99.90
6758;DHT22;3416;53.074;8.822;2024-02-26T05:59:25;4.70;99.90
6758;DHT22;3416;53.074;8.822;2024-02-26T06:01:52;4.60;99.90
6758;DHT22;3416;53.074;8.822;2024-02-26T06:04:20;4.60;99.90
6758;DHT22;3416;53.074;8.822;2024-02-26T06:06:47;4.60;99.90
6758;DHT22;3416;53.074;8.822;2024-02-26T06:09:15;4.60;99.90
6758;DHT22;3416;53.074;8.822;2024-02-26T06:11:42;4.60;99.90
6758;DHT22;3416;53.074;8.822;2024-02-26T06:14:09;4.60;99.90
6758;DHT22;3416;53.074;8.822;2024-02-26T06:16:37;4.50;99.90
6758;DHT22;3416;53.074;8.822;2024-02-26T06:19:10;4.60;99.90
6758;DHT22;3416;53.074;8.822;2024-02-26T06:21:41;4.60;99.90
6758;DHT22;3416;53.074;8.822;2024-02-26T06:24:08;4.60;99.90
6758;DHT22;3416;53.074;8.822;2024-02-26T06:26:35;4.60;99.90
6758;DHT22;3416;53.074;8.822;2024-02-26T06:29:02;4.60;99.90
6758;DHT22;3416;53.074;8.822;2024-02-26T06:31:29;4.60;99.90
6758;DHT22;3416;53.074;8.822;2024-02-26T06:33:56;4.60;99.90
6758;DHT22;3416;53.074;8.822;2024-02-26T06:36:23;4.80;99.90
6758;DHT22;3416;53.074;8.822;2024-02-26T06:38:52;4.70;99.90
6758;DHT22;3416;53.074;8.822;2024-02-26T06:41:21;4.70;99.90
6758;DHT22;3416;53.074;8.822;2024-02-26T06:43:52;4.70;99.90
6758;DHT22;3416;53.074;8.822;2024-02-26T06:46:19;4.70;99.90
6758;DHT22;3416;53.074;8.822;2024-02-26T06:48:48;4.80;99.90
6758;DHT22;3416;53.074;8.822;2024-02-26T06:51:15;4.80;99.90
6758;DHT22;3416;53.074;8.822;2024-02-26T06:53:42;4.80;99.90
6758;DHT22;3416;53.074;8.822;2024-02-26T06:56:10;4.80;99.90
6758;DHT22;3416;53.074;8.822;2024-02-26T06:58:37;4.90;99.90
6758;DHT22;3416;53.074;8.822;2024-02-26T07:01:04;4.90;99.90
6758;DHT22;3416;53.074;8.822;2024-02-26T07:03:33;5.00;99.90
6758;DHT22;3416;53.074;8.822;2024-02-26T07:06:01;5.00;99.90
6758;DHT22;3416;53.074;8.822;2024-02-26T07:08:29;5.00;99.90
6758;DHT22;3416;53.074;8.822;2024-02-26T07:10:55;5.10;99.90
6758;DHT22;3416;53.074;8.822;2024-02-26T07:13:23;5.10;99.90
6758;DHT22;3416;53.074;8.822;2024-02-26T07:15:50;5.10;99.90
6758;DHT22;3416;53.074;8.822;2024-02-26T07:18:17;5.10;99.90
6758;DHT22;3416;53.074;8.822;2024-02-26T07:20:44;5.10;99.90
6758;DHT22;3416;53.074;8.822;2024-02-26T07:23:11;5.20;99.90
6758;DHT22;3416;53.074;8.822;2024-02-26T07:25:38;5.30;99.90
6758;DHT22;3416;53.074;8.822;2024-02-26T07:28:05;5.40;99.90
6758;DHT22;3416;53.074;8.822;2024-02-26T07:30:34;5.40;99.90
6758;DHT22;3416;53.074;8.822;2024-02-26T07:33:01;5.40;99.90
6758;DHT22;3416;53.074;8.822;2024-02-26T07:35:28;5.40;99.90
6758;DHT22;3416;53.074;8.822;2024-02-26T07:37:55;5.40;99.90
6758;DHT22;3416;53.074;8.822;2024-02-26T07:40:22;5.50;99.90
6758;DHT22;3416;53.074;8.822;2024-02-26T07:42:49;5.60;99.90
6758;DHT22;3416;53.074;8.822;2024-02-26T07:45:16;5.60;99.90
6758;DHT22;3416;53.074;8.822;2024-02-26T07:47:46;5.70;99.90
6758;DHT22;3416;53.074;8.822;2024-02-26T07:50:14;5.60;99.90
6758;DHT22;3416;53.074;8.822;2024-02-26T07:52:41;5.60;99.90
6758;DHT22;3416;53.074;8.822;2024-02-26T07:55:08;5.70;99.90
6758;DHT22;3416;53.074;8.822;2024-02-26T07:57:35;5.70;99.90
6758;DHT22;3416;53.074;8.822;2024-02-26T08:00:03;5.70;99.90
6758;DHT22;3416;53.074;8.822;2024-02-26T08:02:33;5.80;99.90
6758;DHT22;3416;53.074;8.822;2024-02-26T08:05:02;5.90;99.90
6758;DHT22;3416;53.074;8.822;2024-02-26T08:07:29;5.90;99.90
6758;DHT22;3416;53.074;8.822;2024-02-26T08:09:56;6.00;99.90
6758;DHT22;3416;53.074;8.822;2024-02-26T08:12:23;6.10;99.90
6758;DHT22;3416;53.074;8.822;2024-02-26T08:14:49;6.00;99.90
6758;DHT22;3416;53.074;8.822;2024-02-26T08:17:17;6.10;99.90
6758;DHT22;3416;53.074;8.822;2024-02-26T08:19:44;6.20;99.90
6758;DHT22;3416;53.074;8.822;2024-02-26T08:22:12;6.20;99.90
6758;DHT22;3416;53.074;8.822;2024-02-26T08:24:41;6.30;99.90
6758;DHT22;3416;53.074;8.822;2024-02-26T08:27:08;6.60;99.90
6758;DHT22;3416;53.074;8.822;2024-02-26T08:29:35;6.80;99.90
6758;DHT22;3416;53.074;8.822;2024-02-26T08:32:03;6.80;99.90
6758;DHT22;3416;53.074;8.822;2024-02-26T08:34:31;7.00;99.90
6758;DHT22;3416;53.074;8.822;2024-02-26T08:36:58;7.00;99.90
6758;DHT22;3416;53.074;8.822;2024-02-26T08:39:26;7.10;99.90
6758;DHT22;3416;53.074;8.822;2024-02-26T08:41:53;7.20;99.90
6758;DHT22;3416;53.074;8.822;2024-02-26T08:44:20;7.20;99.90
6758;DHT22;3416;53.074;8.822;2024-02-26T08:46:48;7.20;99.90
6758;DHT22;3416;53.074;8.822;2024-02-26T08:49:16;7.10;99.90
6758;DHT22;3416;53.074;8.822;2024-02-26T08:51:43;7.10;99.90
6758;DHT22;3416;53.074;8.822;2024-02-26T08:54:11;7.20;99.90
6758;DHT22;3416;53.074;8.822;2024-02-26T08:56:39;7.30;99.90
6758;DHT22;3416;53.074;8.822;2024-02-26T08:59:06;7.40;99.90
6758;DHT22;3416;53.074;8.822;2024-02-26T09:01:33;7.50;99.90
6758;DHT22;3416;53.074;8.822;2024-02-26T09:04:00;7.50;99.90
6758;DHT22;3416;53.074;8.822;2024-02-26T09:06:27;7.50;99.90
6758;DHT22;3416;53.074;8.822;2024-02-26T09:08:55;7.60;99.90
6758;DHT22;3416;53.074;8.822;2024-02-26T09:11:22;7.60;99.90
6758;DHT22;3416;53.074;8.822;2024-02-26T09:13:50;7.60;99.90
6758;DHT22;3416;53.074;8.822;2024-02-26T09:16:17;7.60;99.90
6758;DHT22;3416;53.074;8.822;2024-02-26T09:18:44;7.70;99.90
6758;DHT22;3416;53.074;8.822;2024-02-26T09:21:12;7.70;99.90
6758;DHT22;3416;53.074;8.822;2024-02-26T09:23:39;7.80;99.90
6758;DHT22;3416;53.074;8.822;2024-02-26T09:26:06;7.70;99.90
6758;DHT22;3416;53.074;8.822;2024-02-26T09:28:34;7.80;99.90
6758;DHT22;3416;53.074;8.822;2024-02-26T09:31:05;7.90;99.90
6758;DHT22;3416;53.074;8.822;2024-02-26T09:33:32;8.00;99.90
6758;DHT22;3416;53.074;8.822;2024-02-26T09:35:59;8.00;99.90
6758;DHT22;3416;53.074;8.822;2024-02-26T09:38:27;8.20;99.90
6758;DHT22;3416;53.074;8.822;2024-02-26T09:40:55;8.30;99.90
6758;DHT22;3416;53.074;8.822;2024-02-26T09:43:23;8.40;99.90
6758;DHT22;3416;53.074;8.822;2024-02-26T09:45:50;8.50;99.90
6758;DHT22;3416;53.074;8.822;2024-02-26T09:48:20;8.50;99.90
6758;DHT22;3416;53.074;8.822;2024-02-26T09:50:49;8.50;99.90
6758;DHT22;3416;53.074;8.822;2024-02-26T09:53:17;8.60;99.90
6758;DHT22;3416;53.074;8.822;2024-02-26T09:55:44;8.70;99.90
6758;DHT22;3416;53.074;8.822;2024-02-26T09:58:14;9.00;99.90
6758;DHT22;3416;53.074;8.822;2024-02-26T10:00:49;9.20;99.90
6758;DHT22;3416;53.074;8.822;2024-02-26T10:03:22;9.30;99.90
6758;DHT22;3416;53.074;8.822;2024-02-26T10:05:52;9.40;99.90
6758;DHT22;3416;53.074;8.822;2024-02-26T10:08:21;9.60;99.90
6758;DHT22;3416;53.074;8.822;2024-02-26T10:10:49;9.80;99.90
6758;DHT22;3416;53.074;8.822;2024-02-26T10:13:16;9.80;99.90
6758;DHT22;3416;53.074;8.822;2024-02-26T10:15:45;10.00;99.90
6758;DHT22;3416;53.074;8.822;2024-02-26T10:18:14;10.10;99.90
6758;DHT22;3416;53.074;8.822;2024-02-26T10:20:42;10.30;99.90
6758;DHT22;3416;53.074;8.822;2024-02-26T10:23:11;10.40;99.90
6758;DHT22;3416;53.074;8.822;2024-02-26T10:25:52;10.50;99.90
6758;DHT22;3416;53.074;8.822;2024-02-26T10:28:21;10.60;99.90
6758;DHT22;3416;53.074;8.822;2024-02-26T10:30:48;10.70;99.90
6758;DHT22;3416;53.074;8.822;2024-02-26T10:33:15;10.70;99.90
6758;DHT22;3416;53.074;8.822;2024-02-26T10:35:47;10.60;99.90
6758;DHT22;3416;53.074;8.822;2024-02-26T10:38:14;10.60;99.90
6758;DHT22;3416;53.074;8.822;2024-02-26T10:40:45;10.60;99.90
6758;DHT22;3416;53.074;8.822;2024-02-26T10:43:12;10.70;99.90
6758;DHT22;3416;53.074;8.822;2024-02-26T10:45:40;10.80;99.90
6758;DHT22;3416;53.074;8.822;2024-02-26T10:48:10;11.00;99.90
6758;DHT22;3416;53.074;8.822;2024-02-26T10:50:38;11.20;99.90
6758;DHT22;3416;53.074;8.822;2024-02-26T10:53:16;11.40;99.90
6758;DHT22;3416;53.074;8.822;2024-02-26T10:55:48;11.40;99.90
6758;DHT22;3416;53.074;8.822;2024-02-26T10:58:16;11.30;99.90
6758;DHT22;3416;53.074;8.822;2024-02-26T11:00:44;11.30;99.90
6758;DHT22;3416;53.074;8.822;2024-02-26T11:03:14;11.20;99.90
6758;DHT22;3416;53.074;8.822;2024-02-26T11:05:44;11.20;99.90
6758;DHT22;3416;53.074;8.822;2024-02-26T11:08:13;11.20;99.90
6758;DHT22;3416;53.074;8.822;2024-02-26T11:10:41;11.40;99.90
6758;DHT22;3416;53.074;8.822;2024-02-26T11:13:10;11.30;99.90
6758;DHT22;3416;53.074;8.822;2024-02-26T11:15:39;11.20;99.90
6758;DHT22;3416;53.074;8.822;2024-02-26T11:18:07;11.30;99.90
6758;DHT22;3416;53.074;8.822;2024-02-26T11:20:38;11.30;99.90
6758;DHT22;3416;53.074;8.822;2024-02-26T11:23:09;11.30;99.90
6758;DHT22;3416;53.074;8.822;2024-02-26T11:25:38;11.20;99.90
6758;DHT22;3416;53.074;8.822;2024-02-26T11:28:08;11.10;99.90
6758;DHT22;3416;53.074;8.822;2024-02-26T11:30:39;11.10;99.90
6758;DHT22;3416;53.074;8.822;2024-02-26T11:33:09;11.20;99.90
6758;DHT22;3416;53.074;8.822;2024-02-26T11:35:38;11.30;99.90
6758;DHT22;3416;53.074;8.822;2024-02-26T11:38:05;11.40;99.90
6758;DHT22;3416;53.074;8.822;2024-02-26T11:40:33;11.50;99.90
6758;DHT22;3416;53.074;8.822;2024-02-26T11:43:06;11.50;99.90
6758;DHT22;3416;53.074;8.822;2024-02-26T11:45:50;11.50;99.90
6758;DHT22;3416;53.074;8.822;2024-02-26T11:48:22;11.50;99.90
6758;DHT22;3416;53.074;8.822;2024-02-26T11:50:51;11.50;99.90
6758;DHT22;3416;53.074;8.822;2024-02-26T11:53:21;11.30;99.90
6758;DHT22;3416;53.074;8.822;2024-02-26T11:55:49;11.40;99.90
6758;DHT22;3416;53.074;8.822;2024-02-26T11:58:39;11.40;99.90
6758;DHT22;3416;53.074;8.822;2024-02-26T12:01:06;11.40;99.90
6758;DHT22;3416;53.074;8.822;2024-02-26T12:03:54;11.40;99.90
6758;DHT22;3416;53.074;8.822;2024-02-26T12:06:21;11.40;99.90
6758;DHT22;3416;53.074;8.822;2024-02-26T12:08:49;11.40;99.90
6758;DHT22;3416;53.074;8.822;2024-02-26T12:11:16;11.40;99.90
6758;DHT22;3416;53.074;8.822;2024-02-26T12:13:47;11.40;99.90
6758;DHT22;3416;53.074;8.822;2024-02-26T12:16:35;11.40;99.90
6758;DHT22;3416;53.074;8.822;2024-02-26T12:19:04;11.60;99.90
6758;DHT22;3416;53.074;8.822;2024-02-26T12:21:34;11.60;99.90
6758;DHT22;3416;53.074;8.822;2024-02-26T12:24:11;11.60;99.90
6758;DHT22;3416;53.074;8.822;2024-02-26T12:26:39;11.80;99.90
6758;DHT22;3416;53.074;8.822;2024-02-26T12:29:08;11.90;99.90
6758;DHT22;3416;53.074;8.822;2024-02-26T12:31:37;12.00;99.90
6758;DHT22;3416;53.074;8.822;2024-02-26T12:34:04;12.10;99.90
6758;DHT22;3416;53.074;8.822;2024-02-26T12:36:32;12.10;99.90
6758;DHT22;3416;53.074;8.822;2024-02-26T12:39:01;12.10;99.90
6758;DHT22;3416;53.074;8.822;2024-02-26T12:41:31;12.10;99.90
6758;DHT22;3416;53.074;8.822;2024-02-26T12:43:59;12.10;99.90
6758;DHT22;3416;53.074;8.822;2024-02-26T12:46:27;12.20;99.90
6758;DHT22;3416;53.074;8.822;2024-02-26T12:48:56;12.20;99.90
6758;DHT22;3416;53.074;8.822;2024-02-26T12:51:25;12.30;99.90
6758;DHT22;3416;53.074;8.822;2024-02-26T12:53:52;12.30;99.90
6758;DHT22;3416;53.074;8.822;2024-02-26T12:56:21;12.30;99.90
6758;DHT22;3416;53.074;8.822;2024-02-26T12:58:48;12.40;99.90
6758;DHT22;3416;53.074;8.822;2024-02-26T13:01:19;12.30;99.90
6758;DHT22;3416;53.074;8.822;2024-02-26T13:03:49;12.40;99.90
6758;DHT22;3416;53.074;8.822;2024-02-26T13:06:17;12.20;99.90
6758;DHT22;3416;53.074;8.822;2024-02-26T13:08:44;12.30;99.90
6758;DHT22;3416;53.074;8.822;2024-02-26T13:11:12;12.30;99.90
6758;DHT22;3416;53.074;8.822;2024-02-26T13:13:39;12.20;99.90
6758;DHT22;3416;53.074;8.822;2024-02-26T13:16:09;12.10;99.90
6758;DHT22;3416;53.074;8.822;2024-02-26T13:18:42;12.10;99.90
6758;DHT22;3416;53.074;8.822;2024-02-26T13:21:12;12.00;99.90
6758;DHT22;3416;53.074;8.822;2024-02-26T13:23:41;11.80;99.90
6758;DHT22;3416;53.074;8.822;2024-02-26T13:26:12;11.60;99.90
6758;DHT22;3416;53.074;8.822;2024-02-26T13:28:39;11.50;99.90
6758;DHT22;3416;53.074;8.822;2024-02-26T13:31:06;11.50;99.90
6758;DHT22;3416;53.074;8.822;2024-02-26T13:33:34;11.40;99.90
6758;DHT22;3416;53.074;8.822;2024-02-26T13:36:02;11.20;99.90
6758;DHT22;3416;53.074;8.822;2024-02-26T13:38:31;11.20;99.90
6758;DHT22;3416;53.074;8.822;2024-02-26T13:40:58;11.10;99.90
6758;DHT22;3416;53.074;8.822;2024-02-26T13:43:24;10.90;99.90
6758;DHT22;3416;53.074;8.822;2024-02-26T13:45:51;10.80;99.90
6758;DHT22;3416;53.074;8.822;2024-02-26T13:48:19;10.60;99.90
6758;DHT22;3416;53.074;8.822;2024-02-26T13:50:46;10.50;99.90
6758;DHT22;3416;53.074;8.822;2024-02-26T13:53:13;10.50;99.90
6758;DHT22;3416;53.074;8.822;2024-02-26T13:55:42;10.50;99.90
6758;DHT22;3416;53.074;8.822;2024-02-26T13:58:11;10.50;99.90
6758;DHT22;3416;53.074;8.822;2024-02-26T14:00:39;10.60;99.90
6758;DHT22;3416;53.074;8.822;2024-02-26T14:03:07;10.70;99.90
6758;DHT22;3416;53.074;8.822;2024-02-26T14:05:34;10.80;99.90
6758;DHT22;3416;53.074;8.822;2024-02-26T14:08:02;10.80;99.90
6758;DHT22;3416;53.074;8.822;2024-02-26T14:10:29;10.70;99.90
6758;DHT22;3416;53.074;8.822;2024-02-26T14:12:58;10.70;99.90
6758;DHT22;3416;53.074;8.822;2024-02-26T14:15:25;10.70;99.90
6758;DHT22;3416;53.074;8.822;2024-02-26T14:17:55;10.70;99.90
6758;DHT22;3416;53.074;8.822;2024-02-26T14:20:23;10.70;99.90
6758;DHT22;3416;53.074;8.822;2024-02-26T14:22:50;10.80;99.90
6758;DHT22;3416;53.074;8.822;2024-02-26T14:25:19;10.80;99.90
6758;DHT22;3416;53.074;8.822;2024-02-26T14:27:46;10.70;99.90
6758;DHT22;3416;53.074;8.822;2024-02-26T14:30:15;10.60;99.90
6758;DHT22;3416;53.074;8.822;2024-02-26T14:32:42;10.70;99.90
6758;DHT22;3416;53.074;8.822;2024-02-26T14:35:09;10.70;99.90
6758;DHT22;3416;53.074;8.822;2024-02-26T14:37:37;10.80;99.90
6758;DHT22;3416;53.074;8.822;2024-02-26T14:40:05;10.80;99.90
6758;DHT22;3416;53.074;8.822;2024-02-26T14:42:33;10.70;99.90
6758;DHT22;3416;53.074;8.822;2024-02-26T14:45:00;10.60;99.90
6758;DHT22;3416;53.074;8.822;2024-02-26T14:47:33;10.60;99.90
6758;DHT22;3416;53.074;8.822;2024-02-26T14:50:00;10.50;99.90
6758;DHT22;3416;53.074;8.822;2024-02-26T14:52:27;10.40;99.90
6758;DHT22;3416;53.074;8.822;2024-02-26T14:54:54;10.40;99.90
6758;DHT22;3416;53.074;8.822;2024-02-26T14:57:21;10.20;99.90
6758;DHT22;3416;53.074;8.822;2024-02-26T14:59:48;10.10;99.90
6758;DHT22;3416;53.074;8.822;2024-02-26T15:02:16;10.10;99.90
6758;DHT22;3416;53.074;8.822;2024-02-26T15:04:44;10.00;99.90
6758;DHT22;3416;53.074;8.822;2024-02-26T15:07:12;9.90;99.90
6758;DHT22;3416;53.074;8.822;2024-02-26T15:09:39;9.70;99.90
6758;DHT22;3416;53.074;8.822;2024-02-26T15:12:06;9.60;99.90
6758;DHT22;3416;53.074;8.822;2024-02-26T15:14:34;9.40;99.90
6758;DHT22;3416;53.074;8.822;2024-02-26T15:17:01;9.40;99.90
6758;DHT22;3416;53.074;8.822;2024-02-26T15:19:28;9.40;99.90
6758;DHT22;3416;53.074;8.822;2024-02-26T15:21:57;9.40;99.90
6758;DHT22;3416;53.074;8.822;2024-02-26T15:24:23;9.40;99.90
6758;DHT22;3416;53.074;8.822;2024-02-26T15:26:50;9.30;99.90
6758;DHT22;3416;53.074;8.822;2024-02-26T15:29:17;9.20;99.90
6758;DHT22;3416;53.074;8.822;2024-02-26T15:31:45;9.30;99.90
6758;DHT22;3416;53.074;8.822;2024-02-26T15:34:12;9.30;99.90
6758;DHT22;3416;53.074;8.822;2024-02-26T15:36:39;9.30;99.90
6758;DHT22;3416;53.074;8.822;2024-02-26T15:39:08;9.30;99.90
6758;DHT22;3416;53.074;8.822;2024-02-26T15:41:35;9.20;99.90
6758;DHT22;3416;53.074;8.822;2024-02-26T15:44:03;9.30;99.90
6758;DHT22;3416;53.074;8.822;2024-02-26T15:46:30;9.20;99.90
6758;DHT22;3416;53.074;8.822;2024-02-26T15:48:57;9.20;99.90
6758;DHT22;3416;53.074;8.822;2024-02-26T15:51:24;9.10;99.90
6758;DHT22;3416;53.074;8.822;2024-02-26T15:53:52;9.00;99.90
6758;DHT22;3416;53.074;8.822;2024-02-26T15:56:22;9.00;99.90
6758;DHT22;3416;53.074;8.822;2024-02-26T15:58:50;8.90;99.90
6758;DHT22;3416;53.074;8.822;2024-02-26T16:01:18;8.90;99.90
6758;DHT22;3416;53.074;8.822;2024-02-26T16:03:45;8.80;99.90
6758;DHT22;3416;53.074;8.822;2024-02-26T16:06:18;8.80;99.90
6758;DHT22;3416;53.074;8.822;2024-02-26T16:08:46;8.80;99.90
6758;DHT22;3416;53.074;8.822;2024-02-26T16:11:14;8.80;99.90
6758;DHT22;3416;53.074;8.822;2024-02-26T16:13:43;8.70;99.90
6758;DHT22;3416;53.074;8.822;2024-02-26T16:16:13;8.60;99.90